Terminal Aerodrome Forecast
Issued by NWS

Home | Current Version | Previous Version | Text Only | Print | Product List | Glossary On
Versions: 1 2 3 4 5 6 7 8 9 10 11 12 13 14 15 16 17 18 19
000
FTUS43 KIND 191100
TAFHUF
TAF
KHUF 191128Z 1912/2012 09007KT P6SM FEW090 BKN120
     FM191300 09013KT 5SM SHRA BR OVC012
     FM191600 12012KT 3SM SHRA BR OVC006
     FM192300 27010KT 5SM SHRA BR OVC009
     FM200600 23004KT P6SM OVC010=

USA.gov is the U.S. government's official web portal to all federal, state and local government web resources and services.